Time;durP1;ratioP1;P1;durP2;ratioP2;P2;SDS_P1;SDS_P2;PMS_P1;PMS_P2;Temp;Humidity;BMP_temperature;BMP_pressure;BME280_temperature;BME280_humidity;BME280_pressure;Samples;Min_cycle;Max_cycle;Signal;HPM_P1;HPM_P2
2021/03/03 00:00:16;;;;;;;7.50;4.80;;;;;;;;;;4998987;28;20240;-72
2021/03/03 00:02:43;;;;;;;9.03;5.27;;;;;;;;;;4998535;28;20244;-72
2021/03/03 00:05:11;;;;;;;9.40;5.27;;;;;;;;;;4998824;28;20224;-72
2021/03/03 00:07:38;;;;;;;7.13;4.43;;;;;;;;;;4998946;28;20229;-72
2021/03/03 00:10:05;;;;;;;10.77;5.57;;;;;;;;;;4998609;28;20738;-72
2021/03/03 00:12:33;;;;;;;8.53;5.07;;;;;;;;;;4998756;28;20291;-72
2021/03/03 00:15:01;;;;;;;11.30;5.17;;;;;;;;;;4998901;28;20311;-72
2021/03/03 00:17:28;;;;;;;10.10;5.40;;;;;;;;;;4998583;28;20287;-72
2021/03/03 00:19:55;;;;;;;9.47;4.87;;;;;;;;;;4998672;28;20218;-72
2021/03/03 00:22:22;;;;;;;6.53;4.67;;;;;;;;;;4998419;28;20292;-72
2021/03/03 00:24:49;;;;;;;8.00;5.07;;;;;;;;;;4998525;28;20228;-72
2021/03/03 00:27:16;;;;;;;7.37;4.97;;;;;;;;;;4998412;28;20319;-72
2021/03/03 00:29:43;;;;;;;10.57;5.90;;;;;;;;;;4998674;28;20244;-72
2021/03/03 00:32:11;;;;;;;7.30;5.53;;;;;;;;;;4998417;28;20299;-72
2021/03/03 00:34:38;;;;;;;8.63;5.87;;;;;;;;;;4998116;28;20621;-72
2021/03/03 00:37:05;;;;;;;7.23;4.97;;;;;;;;;;4998251;28;20291;-72
2021/03/03 00:39:32;;;;;;;9.20;5.20;;;;;;;;;;4997940;28;20244;-72
2021/03/03 00:41:59;;;;;;;10.43;5.27;;;;;;;;;;4998198;28;20260;-72
2021/03/03 00:44:26;;;;;;;9.50;5.27;;;;;;;;;;4998045;28;20311;-72
2021/03/03 00:46:53;;;;;;;7.53;4.70;;;;;;;;;;4997840;28;20681;-72
2021/03/03 00:49:21;;;;;;;7.67;4.63;;;;;;;;;;4998084;28;20216;-72
2021/03/03 00:51:48;;;;;;;9.67;5.90;;;;;;;;;;4998391;28;20235;-73
2021/03/03 00:54:15;;;;;;;8.50;5.57;;;;;;;;;;4998082;28;20658;-73
2021/03/03 00:56:42;;;;;;;8.17;5.07;;;;;;;;;;4997894;28;20205;-72
2021/03/03 00:59:09;;;;;;;7.60;5.20;;;;;;;;;;4998049;28;20308;-72
2021/03/03 01:01:37;;;;;;;10.57;6.10;;;;;;;;;;4998102;28;20209;-72
2021/03/03 01:04:04;;;;;;;9.73;5.17;;;;;;;;;;4997870;28;20240;-72
2021/03/03 01:06:32;;;;;;;7.20;5.53;;;;;;;;;;4998432;28;20240;-72
2021/03/03 01:08:59;;;;;;;7.07;5.03;;;;;;;;;;4994191;28;20232;-72
2021/03/03 01:11:26;;;;;;;10.10;5.33;;;;;;;;;;4997911;28;20232;-72
2021/03/03 01:13:53;;;;;;;11.10;5.77;;;;;;;;;;4998094;28;20252;-72
2021/03/03 01:16:20;;;;;;;12.33;5.73;;;;;;;;;;4997724;28;20252;-72
2021/03/03 01:18:47;;;;;;;12.30;6.10;;;;;;;;;;4998073;28;20233;-72
2021/03/03 01:21:14;;;;;;;9.20;5.40;;;;;;;;;;4997824;28;20280;-72
2021/03/03 01:23:42;;;;;;;14.33;5.97;;;;;;;;;;4997674;28;20243;-72
2021/03/03 01:26:09;;;;;;;7.20;4.83;;;;;;;;;;4997414;28;20666;-72
2021/03/03 01:28:36;;;;;;;10.70;5.00;;;;;;;;;;4997878;28;20362;-72
2021/03/03 01:31:03;;;;;;;9.03;4.93;;;;;;;;;;4997384;28;20292;-72
2021/03/03 01:33:31;;;;;;;8.27;5.40;;;;;;;;;;4997723;28;20292;-72
2021/03/03 01:35:58;;;;;;;7.13;5.50;;;;;;;;;;4997269;28;20704;-72
2021/03/03 01:38:25;;;;;;;10.67;5.83;;;;;;;;;;4998150;28;20209;-72
2021/03/03 01:40:53;;;;;;;7.70;5.63;;;;;;;;;;4997690;28;20304;-72
2021/03/03 01:43:20;;;;;;;12.93;5.73;;;;;;;;;;4997495;28;20292;-72
2021/03/03 01:45:48;;;;;;;7.40;5.13;;;;;;;;;;4997445;28;20264;-72
2021/03/03 01:48:16;;;;;;;6.97;5.17;;;;;;;;;;4997805;28;20232;-72
2021/03/03 01:50:43;;;;;;;9.43;5.07;;;;;;;;;;4998904;28;20263;-72
2021/03/03 01:53:11;;;;;;;13.37;4.33;;;;;;;;;;5001396;28;20212;-72
2021/03/03 01:55:38;;;;;;;7.10;3.93;;;;;;;;;;5001234;28;20252;-72
2021/03/03 01:58:06;;;;;;;7.33;4.83;;;;;;;;;;5001044;28;20265;-72
2021/03/03 02:00:33;;;;;;;9.07;4.83;;;;;;;;;;5000763;28;20209;-72
2021/03/03 02:03:00;;;;;;;9.13;4.77;;;;;;;;;;5001142;28;20267;-72
2021/03/03 02:05:29;;;;;;;8.50;4.80;;;;;;;;;;5001067;28;20233;-72
2021/03/03 02:07:58;;;;;;;8.80;4.63;;;;;;;;;;5001336;28;20319;-72
2021/03/03 02:10:29;;;;;;;9.20;5.53;;;;;;;;;;4992779;28;20279;-72
2021/03/03 02:13:00;;;;;;;13.20;8.27;;;;;;;;;;5001071;28;20296;-72
2021/03/03 02:15:28;;;;;;;15.40;7.53;;;;;;;;;;5000568;28;20654;-72
2021/03/03 02:17:57;;;;;;;8.97;5.33;;;;;;;;;;5000701;28;20304;-72
2021/03/03 02:20:26;;;;;;;10.70;5.10;;;;;;;;;;5000650;28;20577;-72
2021/03/03 02:22:59;;;;;;;6.87;5.20;;;;;;;;;;5000769;28;20292;-72
2021/03/03 02:25:28;;;;;;;9.30;5.17;;;;;;;;;;5000806;28;20312;-72
2021/03/03 02:27:57;;;;;;;7.67;4.77;;;;;;;;;;5000278;28;20276;-72
2021/03/03 02:30:24;;;;;;;7.77;4.60;;;;;;;;;;5000433;28;20291;-72
2021/03/03 02:32:52;;;;;;;10.53;5.13;;;;;;;;;;5000481;28;20236;-72
2021/03/03 02:35:20;;;;;;;6.87;4.30;;;;;;;;;;5000613;28;20217;-72
2021/03/03 02:37:47;;;;;;;9.37;5.17;;;;;;;;;;5000501;28;20287;-72
2021/03/03 02:40:15;;;;;;;11.10;4.97;;;;;;;;;;5000441;28;20639;-72
2021/03/03 02:42:44;;;;;;;6.57;4.63;;;;;;;;;;5000132;28;20296;-72
2021/03/03 02:45:12;;;;;;;8.17;4.73;;;;;;;;;;5000026;28;20795;-72
2021/03/03 02:47:39;;;;;;;9.07;5.33;;;;;;;;;;5000073;28;20308;-72
2021/03/03 02:50:08;;;;;;;6.30;4.50;;;;;;;;;;5000352;28;20240;-72
2021/03/03 02:52:48;;;;;;;8.37;4.30;;;;;;;;;;5000182;28;20638;-72
2021/03/03 02:55:15;;;;;;;6.77;4.40;;;;;;;;;;5000132;28;20267;-72
2021/03/03 02:57:43;;;;;;;9.07;5.30;;;;;;;;;;4999893;28;20332;-72
2021/03/03 03:00:12;;;;;;;9.60;5.27;;;;;;;;;;4999829;28;20205;-72
2021/03/03 03:02:41;;;;;;;6.43;4.67;;;;;;;;;;4999691;28;20213;-72
2021/03/03 03:05:11;;;;;;;7.30;4.70;;;;;;;;;;4999985;28;20261;-72
2021/03/03 03:07:39;;;;;;;8.87;4.40;;;;;;;;;;4999993;28;20228;-72
2021/03/03 03:10:08;;;;;;;9.77;5.43;;;;;;;;;;4999702;28;20276;-72
2021/03/03 03:12:35;;;;;;;8.50;4.87;;;;;;;;;;4999636;28;20245;-71
2021/03/03 03:15:04;;;;;;;8.53;5.40;;;;;;;;;;4999650;28;20267;-72
2021/03/03 03:17:32;;;;;;;7.17;4.60;;;;;;;;;;4999376;28;20205;-72
2021/03/03 03:20:01;;;;;;;8.53;5.17;;;;;;;;;;4999860;28;20215;-72
2021/03/03 03:22:28;;;;;;;6.67;4.40;;;;;;;;;;4999740;28;20213;-72
2021/03/03 03:24:56;;;;;;;10.83;5.33;;;;;;;;;;4999309;28;20312;-72
2021/03/03 03:27:24;;;;;;;8.73;5.03;;;;;;;;;;4999205;28;20240;-72
2021/03/03 03:29:51;;;;;;;10.17;5.87;;;;;;;;;;4999607;28;20240;-72
2021/03/03 03:32:24;;;;;;;9.53;5.57;;;;;;;;;;4999065;28;20217;-72
2021/03/03 03:34:52;;;;;;;9.57;5.20;;;;;;;;;;4999405;28;20221;-72
2021/03/03 03:37:19;;;;;;;10.17;5.47;;;;;;;;;;4999121;28;20643;-72
2021/03/03 03:39:46;;;;;;;13.80;5.57;;;;;;;;;;4999516;28;20300;-72
2021/03/03 03:42:14;;;;;;;7.30;5.63;;;;;;;;;;4999051;28;20278;-72
2021/03/03 03:44:42;;;;;;;9.30;5.67;;;;;;;;;;4999264;28;20268;-72
2021/03/03 03:47:09;;;;;;;6.60;5.70;;;;;;;;;;4998732;28;20292;-72
2021/03/03 03:49:38;;;;;;;7.60;5.43;;;;;;;;;;4999227;28;20256;-72
2021/03/03 03:52:05;;;;;;;12.93;5.70;;;;;;;;;;4998881;28;20748;-72
2021/03/03 03:54:32;;;;;;;9.83;5.00;;;;;;;;;;4999154;28;20316;-72
2021/03/03 03:56:59;;;;;;;8.93;4.60;;;;;;;;;;4998698;28;20640;-72
2021/03/03 03:59:26;;;;;;;8.13;4.73;;;;;;;;;;4998855;28;20205;-72
2021/03/03 04:01:53;;;;;;;8.63;4.80;;;;;;;;;;4998765;28;20240;-72
2021/03/03 04:04:20;;;;;;;10.20;5.37;;;;;;;;;;4998964;28;20775;-72
2021/03/03 04:06:48;;;;;;;10.50;5.03;;;;;;;;;;4998769;28;20216;-72
2021/03/03 04:09:15;;;;;;;9.60;4.33;;;;;;;;;;4998409;28;20662;-72
2021/03/03 04:11:42;;;;;;;10.60;4.83;;;;;;;;;;4998468;28;20694;-72
2021/03/03 04:14:10;;;;;;;10.33;4.97;;;;;;;;;;4998070;28;20304;-72
2021/03/03 04:16:37;;;;;;;9.57;4.60;;;;;;;;;;4998206;28;20259;-72
2021/03/03 04:19:04;;;;;;;7.03;4.67;;;;;;;;;;4998814;28;20216;-72
2021/03/03 04:21:31;;;;;;;5.43;4.20;;;;;;;;;;4998422;28;20299;-72
2021/03/03 04:23:59;;;;;;;9.13;5.27;;;;;;;;;;4998429;28;20311;-72
2021/03/03 04:26:26;;;;;;;8.13;4.80;;;;;;;;;;4998341;28;20244;-72
2021/03/03 04:28:53;;;;;;;8.50;4.80;;;;;;;;;;4998335;28;20312;-72
2021/03/03 04:31:20;;;;;;;7.50;5.37;;;;;;;;;;4998051;28;20739;-72
2021/03/03 04:33:47;;;;;;;8.83;4.70;;;;;;;;;;4998530;28;20232;-72
2021/03/03 04:36:14;;;;;;;7.20;4.97;;;;;;;;;;4998158;28;20252;-72
2021/03/03 04:38:41;;;;;;;11.07;5.03;;;;;;;;;;4998230;28;20732;-72
2021/03/03 04:41:09;;;;;;;10.37;5.30;;;;;;;;;;4998121;28;20615;-72
2021/03/03 04:43:36;;;;;;;9.47;5.23;;;;;;;;;;4998257;28;20205;-73
2021/03/03 04:46:03;;;;;;;10.63;6.10;;;;;;;;;;4998004;28;20271;-72
2021/03/03 04:48:31;;;;;;;7.57;5.23;;;;;;;;;;4997998;28;20319;-71
2021/03/03 04:50:58;;;;;;;10.47;5.23;;;;;;;;;;4998092;28;20744;-72
2021/03/03 04:53:25;;;;;;;12.47;5.60;;;;;;;;;;4998351;28;20292;-71
2021/03/03 04:55:52;;;;;;;8.63;5.13;;;;;;;;;;4998065;28;20716;-72
2021/03/03 04:58:20;;;;;;;8.50;5.33;;;;;;;;;;4997989;28;20712;-72
2021/03/03 05:00:47;;;;;;;10.37;5.50;;;;;;;;;;4997869;28;20213;-72
2021/03/03 05:03:31;;;;;;;10.63;5.67;;;;;;;;;;4998281;28;20309;-72
2021/03/03 05:06:01;;;;;;;12.60;6.43;;;;;;;;;;4998225;28;20232;-72
2021/03/03 05:08:28;;;;;;;7.50;5.10;;;;;;;;;;4997761;28;20275;-72
2021/03/03 05:10:55;;;;;;;10.40;6.30;;;;;;;;;;4998240;28;20296;-71
2021/03/03 05:13:23;;;;;;;10.00;5.53;;;;;;;;;;4998043;28;20293;-71
2021/03/03 05:15:50;;;;;;;11.07;5.50;;;;;;;;;;4997938;28;20267;-72
2021/03/03 05:18:17;;;;;;;10.63;5.27;;;;;;;;;;4997929;28;20292;-71
2021/03/03 05:20:44;;;;;;;7.33;5.10;;;;;;;;;;4998171;28;20271;-71
2021/03/03 05:23:12;;;;;;;8.87;5.53;;;;;;;;;;4998139;28;20215;-72
2021/03/03 05:25:39;;;;;;;9.67;5.23;;;;;;;;;;4999071;28;20260;-71
2021/03/03 05:28:06;;;;;;;10.20;4.83;;;;;;;;;;5001694;28;20261;-71
2021/03/03 05:30:34;;;;;;;8.87;5.17;;;;;;;;;;5001602;28;20296;-71
2021/03/03 05:33:01;;;;;;;7.17;5.50;;;;;;;;;;5001451;28;20245;-71
2021/03/03 05:35:28;;;;;;;11.63;5.80;;;;;;;;;;5001503;28;20221;-71
2021/03/03 05:37:55;;;;;;;10.93;4.73;;;;;;;;;;5001472;28;20228;-71
2021/03/03 05:40:23;;;;;;;7.43;4.10;;;;;;;;;;5001657;28;20247;-71
2021/03/03 05:42:50;;;;;;;9.00;5.30;;;;;;;;;;5001389;28;20244;-71
2021/03/03 05:45:17;;;;;;;6.60;5.10;;;;;;;;;;5001244;28;20320;-71
2021/03/03 05:47:47;;;;;;;10.90;5.50;;;;;;;;;;5001061;28;20204;-71
2021/03/03 05:50:16;;;;;;;9.20;4.53;;;;;;;;;;5001746;28;20296;-71
2021/03/03 05:52:43;;;;;;;8.13;5.90;;;;;;;;;;5001265;28;20209;-71
2021/03/03 05:55:11;;;;;;;14.43;7.17;;;;;;;;;;5001049;28;20325;-71
2021/03/03 05:57:39;;;;;;;11.00;6.13;;;;;;;;;;5001235;28;20240;-71
2021/03/03 06:00:07;;;;;;;12.47;5.90;;;;;;;;;;5001158;28;20240;-71
2021/03/03 06:02:36;;;;;;;8.73;5.00;;;;;;;;;;5001050;28;20219;-71
2021/03/03 06:05:05;;;;;;;8.03;4.90;;;;;;;;;;5000904;28;20233;-71
2021/03/03 06:07:34;;;;;;;8.90;6.10;;;;;;;;;;5001182;28;20209;-71
2021/03/03 06:10:01;;;;;;;10.17;6.13;;;;;;;;;;5000463;28;20259;-71
2021/03/03 06:12:28;;;;;;;9.70;6.10;;;;;;;;;;5000741;28;20296;-71
2021/03/03 06:14:55;;;;;;;8.40;5.30;;;;;;;;;;5000631;28;20256;-71
2021/03/03 06:17:22;;;;;;;7.43;5.00;;;;;;;;;;5000457;28;20689;-71
2021/03/03 06:19:50;;;;;;;9.27;5.20;;;;;;;;;;5000651;28;20205;-71
2021/03/03 06:22:25;;;;;;;10.67;6.30;;;;;;;;;;5000663;28;20625;-71
2021/03/03 06:24:54;;;;;;;8.63;6.07;;;;;;;;;;4999686;28;20286;-71
2021/03/03 06:27:22;;;;;;;9.40;5.07;;;;;;;;;;5001588;28;20205;-71
2021/03/03 06:30:02;;;;;;;14.63;6.43;;;;;;;;;;5004988;28;20292;-70
2021/03/03 06:32:29;;;;;;;12.03;5.50;;;;;;;;;;4996934;28;20232;-70
2021/03/03 06:34:57;;;;;;;9.50;6.07;;;;;;;;;;4999446;28;20249;-71
2021/03/03 06:37:25;;;;;;;11.63;6.17;;;;;;;;;;4998894;28;20619;-70
2021/03/03 06:40:07;;;;;;;14.83;6.30;;;;;;;;;;4999064;28;20743;-70
2021/03/03 06:42:34;;;;;;;11.27;5.57;;;;;;;;;;4997143;28;20288;-71
2021/03/03 06:45:01;;;;;;;11.90;5.53;;;;;;;;;;5006825;28;20695;-71
2021/03/03 06:47:28;;;;;;;9.13;6.43;;;;;;;;;;4998197;28;20626;-71
2021/03/03 06:50:09;;;;;;;11.83;5.93;;;;;;;;;;4998918;28;20316;-71
2021/03/03 06:52:41;;;;;;;10.10;5.67;;;;;;;;;;4997808;28;20225;-70
2021/03/03 06:55:09;;;;;;;8.03;5.40;;;;;;;;;;4998460;28;20620;-71
2021/03/03 06:57:36;;;;;;;14.23;5.60;;;;;;;;;;4996536;28;20315;-70
2021/03/03 07:00:04;;;;;;;8.23;5.40;;;;;;;;;;4999056;28;20284;-71
2021/03/03 07:02:31;;;;;;;9.90;5.97;;;;;;;;;;4998686;28;20217;-71
2021/03/03 07:05:06;;;;;;;12.40;6.43;;;;;;;;;;4999790;28;20256;-71
2021/03/03 07:07:33;;;;;;;8.73;5.17;;;;;;;;;;5006049;28;20232;-72
2021/03/03 07:10:01;;;;;;;12.27;6.10;;;;;;;;;;4997832;28;20247;-71
2021/03/03 07:12:30;;;;;;;11.30;5.90;;;;;;;;;;4999219;28;20201;-71
2021/03/03 07:14:58;;;;;;;10.00;6.33;;;;;;;;;;4999563;28;20232;-71
2021/03/03 07:17:31;;;;;;;10.43;6.10;;;;;;;;;;4991721;28;20272;-70
2021/03/03 07:19:59;;;;;;;10.43;5.93;;;;;;;;;;4999658;28;20215;-71
2021/03/03 07:22:28;;;;;;;14.60;8.10;;;;;;;;;;4997061;28;20259;-69
2021/03/03 07:24:56;;;;;;;8.27;5.87;;;;;;;;;;4999155;28;20233;-70
2021/03/03 07:27:24;;;;;;;13.70;5.50;;;;;;;;;;4998802;28;20292;-70
2021/03/03 07:29:52;;;;;;;7.40;4.93;;;;;;;;;;4999219;28;20320;-70
2021/03/03 07:32:19;;;;;;;8.80;5.53;;;;;;;;;;4998735;28;20211;-70
2021/03/03 07:34:48;;;;;;;10.23;5.33;;;;;;;;;;4999103;28;20216;-71
2021/03/03 07:37:16;;;;;;;10.13;5.50;;;;;;;;;;5005553;28;20620;-68
2021/03/03 07:39:46;;;;;;;12.50;6.13;;;;;;;;;;4999006;28;20201;-70
2021/03/03 07:42:15;;;;;;;9.23;5.70;;;;;;;;;;4998713;28;20580;-70
2021/03/03 07:44:44;;;;;;;11.93;6.20;;;;;;;;;;4998759;28;20237;-70
2021/03/03 07:47:14;;;;;;;12.10;6.40;;;;;;;;;;4998859;28;20240;-70
2021/03/03 07:49:43;;;;;;;11.97;6.47;;;;;;;;;;4998077;28;20598;-71
2021/03/03 07:52:11;;;;;;;9.93;5.50;;;;;;;;;;4999288;28;20273;-70
2021/03/03 07:54:38;;;;;;;13.30;6.53;;;;;;;;;;4998563;28;20260;-69
2021/03/03 07:57:07;;;;;;;12.90;6.10;;;;;;;;;;4998370;28;20216;-70
2021/03/03 07:59:34;;;;;;;10.20;6.40;;;;;;;;;;4998508;28;20232;-71
2021/03/03 08:02:03;;;;;;;16.93;6.33;;;;;;;;;;4998272;28;20212;-69
2021/03/03 08:04:37;;;;;;;16.37;6.93;;;;;;;;;;4998202;28;20596;-70
2021/03/03 08:07:24;;;;;;;15.23;6.13;;;;;;;;;;4998432;28;20287;-70
2021/03/03 08:10:10;;;;;;;10.03;5.70;;;;;;;;;;4997993;28;20645;-70
2021/03/03 08:12:55;;;;;;;12.60;5.57;;;;;;;;;;4998237;28;20223;-69
2021/03/03 08:15:33;;;;;;;14.13;6.33;;;;;;;;;;4997882;28;20328;-71
2021/03/03 08:18:31;;;;;;;12.37;5.90;;;;;;;;;;4998348;28;20236;-70
2021/03/03 08:21:00;;;;;;;12.63;6.63;;;;;;;;;;4998323;28;20300;-71
2021/03/03 08:23:47;;;;;;;14.83;6.63;;;;;;;;;;4998113;28;20263;-71
2021/03/03 08:26:32;;;;;;;14.60;8.17;;;;;;;;;;4997807;28;20232;-70
2021/03/03 08:29:13;;;;;;;14.37;6.47;;;;;;;;;;4997998;28;20283;-70
2021/03/03 08:31:40;;;;;;;12.17;6.27;;;;;;;;;;4997921;28;20247;-71
2021/03/03 08:34:09;;;;;;;10.53;6.40;;;;;;;;;;4998075;28;20216;-71
2021/03/03 08:36:52;;;;;;;8.83;5.80;;;;;;;;;;5005556;28;20258;-71
2021/03/03 08:39:26;;;;;;;11.07;6.40;;;;;;;;;;4998253;28;20638;-71
2021/03/03 08:41:53;;;;;;;12.60;5.90;;;;;;;;;;4997984;28;20296;-71
2021/03/03 08:44:21;;;;;;;8.73;6.47;;;;;;;;;;4997800;28;20562;-71
2021/03/03 08:46:49;;;;;;;12.17;6.93;;;;;;;;;;4997512;28;20240;-71
2021/03/03 08:49:38;;;;;;;20.60;6.87;;;;;;;;;;4997809;28;20237;-70
2021/03/03 08:52:10;;;;;;;9.57;6.07;;;;;;;;;;4994145;28;20244;-68
2021/03/03 08:54:39;;;;;;;13.33;6.57;;;;;;;;;;4995690;28;20311;-69
2021/03/03 08:57:26;;;;;;;11.47;5.97;;;;;;;;;;4996372;28;20242;-71
2021/03/03 08:59:53;;;;;;;17.73;5.80;;;;;;;;;;4999123;28;20244;-70
2021/03/03 09:02:22;;;;;;;18.83;7.23;;;;;;;;;;5001785;28;20675;-71
2021/03/03 09:04:50;;;;;;;17.77;7.03;;;;;;;;;;5001463;28;20690;-70
2021/03/03 09:07:20;;;;;;;17.57;6.67;;;;;;;;;;5001922;28;20293;-70
2021/03/03 09:09:49;;;;;;;12.07;6.20;;;;;;;;;;5001343;28;20822;-70
2021/03/03 09:12:18;;;;;;;10.57;5.60;;;;;;;;;;5001759;28;20263;-71
2021/03/03 09:14:45;;;;;;;11.40;5.23;;;;;;;;;;5001457;28;20748;-71
2021/03/03 09:17:16;;;;;;;14.17;5.83;;;;;;;;;;5001281;28;20668;-71
2021/03/03 09:19:44;;;;;;;8.90;4.70;;;;;;;;;;5001687;28;20209;-71
2021/03/03 09:22:14;;;;;;;10.77;5.60;;;;;;;;;;5001476;28;20209;-72
2021/03/03 09:24:43;;;;;;;16.00;5.93;;;;;;;;;;5001356;28;20267;-71
2021/03/03 09:27:10;;;;;;;13.17;5.57;;;;;;;;;;5001730;28;20240;-71
2021/03/03 09:29:37;;;;;;;10.63;5.70;;;;;;;;;;5001187;28;20668;-71
2021/03/03 09:32:06;;;;;;;11.73;5.83;;;;;;;;;;5001005;28;20574;-72
2021/03/03 09:34:34;;;;;;;12.27;5.40;;;;;;;;;;5000803;28;20260;-72
2021/03/03 09:37:04;;;;;;;12.13;5.03;;;;;;;;;;5000967;28;20205;-72
2021/03/03 09:39:31;;;;;;;11.17;4.67;;;;;;;;;;5001338;28;20209;-71
2021/03/03 09:42:01;;;;;;;16.07;6.73;;;;;;;;;;5000992;28;20705;-71
2021/03/03 09:44:28;;;;;;;12.90;5.40;;;;;;;;;;5001003;28;20260;-71
2021/03/03 09:46:57;;;;;;;21.20;8.63;;;;;;;;;;5000620;28;20739;-71
2021/03/03 09:49:26;;;;;;;13.97;6.13;;;;;;;;;;5001056;28;20232;-71
2021/03/03 09:51:53;;;;;;;9.87;5.47;;;;;;;;;;5000900;28;20646;-72
2021/03/03 09:54:31;;;;;;;17.50;6.70;;;;;;;;;;5001037;28;20284;-71
2021/03/03 09:57:12;;;;;;;11.87;4.77;;;;;;;;;;5000631;28;20204;-71
2021/03/03 09:59:40;;;;;;;12.37;6.00;;;;;;;;;;5000935;28;20288;-72
2021/03/03 10:02:07;;;;;;;9.87;5.37;;;;;;;;;;5000415;28;20245;-71
2021/03/03 10:04:38;;;;;;;10.20;5.33;;;;;;;;;;5000780;28;20229;-71
2021/03/03 10:07:21;;;;;;;7.90;4.70;;;;;;;;;;5000807;28;20680;-70
2021/03/03 10:09:49;;;;;;;10.43;5.53;;;;;;;;;;5000360;28;20255;-71
2021/03/03 10:12:17;;;;;;;8.87;5.30;;;;;;;;;;4999671;28;20640;-71
2021/03/03 10:15:08;;;;;;;8.23;4.80;;;;;;;;;;5000637;28;20321;-71
2021/03/03 10:17:40;;;;;;;7.73;4.50;;;;;;;;;;4991888;28;20213;-71
2021/03/03 10:20:26;;;;;;;9.70;5.57;;;;;;;;;;5000261;28;20213;-71
2021/03/03 10:22:54;;;;;;;13.00;5.93;;;;;;;;;;5000105;28;20213;-70
2021/03/03 10:25:29;;;;;;;8.80;5.90;;;;;;;;;;5000521;28;20228;-71
2021/03/03 10:28:01;;;;;;;10.07;5.97;;;;;;;;;;5000319;28;20291;-71
2021/03/03 10:30:30;;;;;;;9.67;6.13;;;;;;;;;;5000085;28;20259;-70
2021/03/03 10:32:57;;;;;;;8.40;6.67;;;;;;;;;;5000141;28;20244;-70
2021/03/03 10:35:26;;;;;;;10.13;5.77;;;;;;;;;;4999996;28;20279;-70
2021/03/03 10:37:53;;;;;;;10.47;5.63;;;;;;;;;;5000319;28;20278;-72
2021/03/03 10:40:21;;;;;;;11.67;6.13;;;;;;;;;;5000283;28;20209;-72
2021/03/03 10:42:48;;;;;;;12.43;6.47;;;;;;;;;;4999984;28;20213;-72
2021/03/03 10:45:20;;;;;;;13.40;7.17;;;;;;;;;;4999667;28;20319;-72
2021/03/03 10:47:49;;;;;;;8.77;6.00;;;;;;;;;;5000043;28;20213;-71
2021/03/03 10:50:33;;;;;;;12.63;6.43;;;;;;;;;;4999642;28;20247;-72
2021/03/03 10:53:01;;;;;;;10.83;6.53;;;;;;;;;;4998905;28;20681;-72
2021/03/03 10:55:32;;;;;;;14.50;6.67;;;;;;;;;;4999231;28;20720;-70
2021/03/03 10:58:04;;;;;;;9.73;6.33;;;;;;;;;;4999405;28;20247;-71
2021/03/03 11:00:32;;;;;;;13.10;7.60;;;;;;;;;;4996588;28;20559;-69
2021/03/03 11:03:03;;;;;;;11.10;5.83;;;;;;;;;;4999274;28;20232;-69
2021/03/03 11:05:31;;;;;;;8.27;6.23;;;;;;;;;;4998029;28;20697;-71
2021/03/03 11:08:14;;;;;;;15.83;6.40;;;;;;;;;;4996993;28;20545;-69
2021/03/03 11:10:41;;;;;;;10.03;6.17;;;;;;;;;;4999322;28;20271;-70
2021/03/03 11:13:08;;;;;;;10.77;6.33;;;;;;;;;;4999527;28;20272;-69
2021/03/03 11:15:39;;;;;;;11.60;6.37;;;;;;;;;;4999127;28;20639;-70
2021/03/03 11:18:06;;;;;;;13.17;5.63;;;;;;;;;;4999521;28;20240;-68
2021/03/03 11:20:33;;;;;;;10.33;6.23;;;;;;;;;;4999477;28;20201;-69
2021/03/03 11:23:01;;;;;;;11.17;6.53;;;;;;;;;;4999042;28;20209;-70
2021/03/03 11:25:28;;;;;;;12.17;6.53;;;;;;;;;;4999348;28;20225;-71
2021/03/03 11:27:55;;;;;;;14.03;6.47;;;;;;;;;;4999252;28;20236;-71
2021/03/03 11:30:22;;;;;;;11.97;6.03;;;;;;;;;;4999064;28;20279;-71
2021/03/03 11:32:52;;;;;;;10.40;5.90;;;;;;;;;;4999089;28;20276;-69
2021/03/03 11:35:20;;;;;;;8.50;6.73;;;;;;;;;;4999115;28;20217;-70
2021/03/03 11:37:47;;;;;;;8.37;5.90;;;;;;;;;;5011591;28;20243;-70
2021/03/03 11:40:15;;;;;;;10.93;6.27;;;;;;;;;;4998662;28;20208;-69
2021/03/03 11:42:42;;;;;;;9.23;5.97;;;;;;;;;;4998242;28;20205;-69
2021/03/03 11:45:09;;;;;;;12.50;6.53;;;;;;;;;;4998323;28;20311;-69
2021/03/03 11:47:36;;;;;;;9.63;6.13;;;;;;;;;;4997842;28;20272;-70
2021/03/03 11:50:06;;;;;;;16.87;6.47;;;;;;;;;;4998165;28;20591;-70
2021/03/03 11:52:33;;;;;;;15.60;6.70;;;;;;;;;;4997940;28;20295;-71
2021/03/03 11:55:00;;;;;;;15.43;6.63;;;;;;;;;;4998858;28;20232;-71
2021/03/03 11:57:28;;;;;;;9.13;5.93;;;;;;;;;;4998762;28;20291;-72
2021/03/03 11:59:57;;;;;;;11.47;6.30;;;;;;;;;;4998619;28;20205;-72
2021/03/03 12:02:24;;;;;;;11.40;6.17;;;;;;;;;;4998518;28;20208;-71
2021/03/03 12:04:53;;;;;;;10.00;6.37;;;;;;;;;;4998471;28;20256;-70
2021/03/03 12:07:21;;;;;;;12.03;5.80;;;;;;;;;;4998636;28;20263;-70
2021/03/03 12:09:48;;;;;;;13.70;6.70;;;;;;;;;;4998016;28;20240;-70
2021/03/03 12:12:15;;;;;;;15.60;7.03;;;;;;;;;;4997664;28;20689;-68
2021/03/03 12:14:43;;;;;;;8.13;5.93;;;;;;;;;;4997610;28;20252;-68
2021/03/03 12:17:10;;;;;;;10.00;6.77;;;;;;;;;;4996824;28;20232;-66
2021/03/03 12:19:38;;;;;;;11.37;6.70;;;;;;;;;;4996980;28;20205;-68
2021/03/03 12:22:05;;;;;;;11.67;7.43;;;;;;;;;;4997288;28;20231;-70
2021/03/03 12:24:33;;;;;;;12.43;7.07;;;;;;;;;;4996983;28;20710;-70
2021/03/03 12:27:00;;;;;;;13.63;7.23;;;;;;;;;;4994443;28;20200;-70
2021/03/03 12:29:27;;;;;;;14.00;7.33;;;;;;;;;;4997135;28;20229;-70
2021/03/03 12:31:55;;;;;;;13.03;6.57;;;;;;;;;;4996804;28;20209;-70
2021/03/03 12:34:22;;;;;;;13.67;7.53;;;;;;;;;;4994452;28;20229;-70
2021/03/03 12:36:49;;;;;;;13.70;6.43;;;;;;;;;;4997069;28;20237;-70
2021/03/03 12:39:17;;;;;;;9.97;6.07;;;;;;;;;;4996820;28;20240;-70
2021/03/03 12:41:45;;;;;;;12.30;6.80;;;;;;;;;;4996630;28;20260;-70
2021/03/03 12:44:12;;;;;;;10.27;6.63;;;;;;;;;;4997041;28;20288;-70
2021/03/03 12:46:39;;;;;;;13.77;6.73;;;;;;;;;;4996488;28;20310;-70
2021/03/03 12:49:06;;;;;;;14.37;6.63;;;;;;;;;;4996962;28;20213;-70
2021/03/03 12:51:33;;;;;;;10.97;6.33;;;;;;;;;;4996663;28;20209;-70
2021/03/03 12:54:01;;;;;;;15.03;5.97;;;;;;;;;;4994743;28;20639;-70
2021/03/03 12:56:28;;;;;;;11.07;6.90;;;;;;;;;;4994547;28;20252;-69
2021/03/03 12:58:56;;;;;;;11.80;6.17;;;;;;;;;;4995902;28;20212;-68
2021/03/03 13:01:23;;;;;;;12.70;6.63;;;;;;;;;;4997281;28;20213;-69
2021/03/03 13:03:50;;;;;;;9.10;6.33;;;;;;;;;;4997732;28;20209;-70
2021/03/03 13:06:17;;;;;;;12.90;7.07;;;;;;;;;;4997590;28;20341;-70
2021/03/03 13:08:44;;;;;;;14.63;5.93;;;;;;;;;;4997748;28;20328;-70
2021/03/03 13:11:11;;;;;;;11.80;6.13;;;;;;;;;;4997495;28;20321;-70
2021/03/03 13:13:38;;;;;;;13.30;6.63;;;;;;;;;;4998058;28;20229;-70
2021/03/03 13:16:06;;;;;;;10.87;5.37;;;;;;;;;;4997580;28;20232;-70
2021/03/03 13:18:33;;;;;;;15.60;6.13;;;;;;;;;;4997889;28;20260;-70
2021/03/03 13:21:00;;;;;;;13.33;6.10;;;;;;;;;;4997474;28;20692;-70
2021/03/03 13:23:27;;;;;;;16.67;6.10;;;;;;;;;;4997835;28;20250;-70
2021/03/03 13:25:55;;;;;;;13.97;6.00;;;;;;;;;;4997684;28;20233;-70
2021/03/03 13:28:22;;;;;;;16.67;6.30;;;;;;;;;;4997277;28;20215;-70
2021/03/03 13:30:49;;;;;;;12.20;5.53;;;;;;;;;;4994104;28;20732;-70
2021/03/03 13:33:18;;;;;;;12.40;6.27;;;;;;;;;;4997094;28;20661;-70
2021/03/03 13:35:45;;;;;;;14.07;7.37;;;;;;;;;;4997703;28;20233;-69
2021/03/03 13:38:12;;;;;;;16.27;6.27;;;;;;;;;;5003501;28;20673;-70
2021/03/03 13:40:40;;;;;;;11.70;6.93;;;;;;;;;;4996864;28;20198;-70
2021/03/03 13:43:07;;;;;;;14.67;6.67;;;;;;;;;;4997230;28;20207;-68
2021/03/03 13:45:34;;;;;;;13.70;6.17;;;;;;;;;;4996925;28;20315;-65
2021/03/03 13:48:02;;;;;;;8.40;5.40;;;;;;;;;;5000490;28;20203;-64
2021/03/03 13:50:30;;;;;;;14.07;6.77;;;;;;;;;;5000602;28;20225;-64
2021/03/03 13:52:57;;;;;;;16.83;5.70;;;;;;;;;;5000567;28;20224;-64
2021/03/03 13:55:24;;;;;;;11.67;5.97;;;;;;;;;;4996104;28;20830;-65
2021/03/03 13:57:51;;;;;;;18.57;6.30;;;;;;;;;;5008957;28;20269;-65
2021/03/03 14:00:18;;;;;;;7.13;5.33;;;;;;;;;;5005746;28;20627;-66
2021/03/03 14:02:45;;;;;;;11.47;5.37;;;;;;;;;;5008104;28;20721;-66
2021/03/03 14:05:13;;;;;;;9.67;5.57;;;;;;;;;;5011107;28;20279;-66
2021/03/03 14:07:40;;;;;;;8.10;5.30;;;;;;;;;;5008290;28;20200;-66
2021/03/03 14:10:24;;;;;;;14.73;6.07;;;;;;;;;;5007646;28;20232;-66
2021/03/03 14:12:51;;;;;;;9.87;6.10;;;;;;;;;;5009826;28;20657;-66
2021/03/03 14:15:19;;;;;;;13.07;6.13;;;;;;;;;;5005828;28;20228;-66
2021/03/03 14:17:46;;;;;;;12.47;6.80;;;;;;;;;;5006212;28;20205;-66
2021/03/03 14:20:13;;;;;;;8.90;6.10;;;;;;;;;;4997176;28;20201;-66
2021/03/03 14:22:41;;;;;;;10.23;6.23;;;;;;;;;;4999962;28;20661;-66
2021/03/03 14:25:09;;;;;;;14.60;6.67;;;;;;;;;;4999357;28;20693;-66
2021/03/03 14:27:36;;;;;;;14.27;7.00;;;;;;;;;;4999648;28;20213;-66
2021/03/03 14:30:04;;;;;;;11.53;5.97;;;;;;;;;;5000254;28;20612;-68
2021/03/03 14:32:34;;;;;;;16.00;6.60;;;;;;;;;;5000330;28;20205;-68
2021/03/03 14:35:03;;;;;;;14.77;6.37;;;;;;;;;;5000159;28;20221;-68
2021/03/03 14:37:30;;;;;;;6.87;5.43;;;;;;;;;;5000525;28;20235;-68
2021/03/03 14:39:58;;;;;;;13.83;6.13;;;;;;;;;;5000592;28;20243;-68
2021/03/03 14:42:25;;;;;;;9.40;5.87;;;;;;;;;;5000338;28;20212;-69
2021/03/03 14:44:52;;;;;;;17.43;6.37;;;;;;;;;;4999680;28;20256;-68